sensor_id;sensor_type;location;lat;lon;timestamp;P1;durP1;ratioP1;P2;durP2;ratioP2
45522;SDS011;31254;51.680;5.394;2023-05-07T00:01:20;9.93;;;6.70;;
45522;SDS011;31254;51.680;5.394;2023-05-07T00:03:47;7.95;;;6.43;;
45522;SDS011;31254;51.680;5.394;2023-05-07T00:06:15;9.27;;;6.53;;
45522;SDS011;31254;51.680;5.394;2023-05-07T00:08:42;7.70;;;6.90;;
45522;SDS011;31254;51.680;5.394;2023-05-07T00:11:09;9.60;;;6.68;;
45522;SDS011;31254;51.680;5.394;2023-05-07T00:13:36;12.40;;;6.88;;
45522;SDS011;31254;51.680;5.394;2023-05-07T00:16:03;10.60;;;6.70;;
45522;SDS011;31254;51.680;5.394;2023-05-07T00:18:30;8.07;;;6.10;;
45522;SDS011;31254;51.680;5.394;2023-05-07T00:20:57;7.80;;;6.30;;
45522;SDS011;31254;51.680;5.394;2023-05-07T00:23:27;9.77;;;6.28;;
45522;SDS011;31254;51.680;5.394;2023-05-07T00:25:53;8.45;;;6.18;;
45522;SDS011;31254;51.680;5.394;2023-05-07T00:28:22;7.93;;;5.90;;
45522;SDS011;31254;51.680;5.394;2023-05-07T00:30:52;7.88;;;6.28;;
45522;SDS011;31254;51.680;5.394;2023-05-07T00:33:19;7.90;;;5.88;;
45522;SDS011;31254;51.680;5.394;2023-05-07T00:35:47;10.98;;;6.15;;
45522;SDS011;31254;51.680;5.394;2023-05-07T00:38:14;8.40;;;6.53;;
45522;SDS011;31254;51.680;5.394;2023-05-07T00:40:41;7.97;;;6.38;;
45522;SDS011;31254;51.680;5.394;2023-05-07T00:43:08;9.68;;;5.70;;
45522;SDS011;31254;51.680;5.394;2023-05-07T00:45:35;8.77;;;6.18;;
45522;SDS011;31254;51.680;5.394;2023-05-07T00:48:04;11.45;;;7.03;;
45522;SDS011;31254;51.680;5.394;2023-05-07T00:50:32;9.05;;;6.15;;
45522;SDS011;31254;51.680;5.394;2023-05-07T00:52:59;7.75;;;6.40;;
45522;SDS011;31254;51.680;5.394;2023-05-07T00:55:26;9.05;;;6.47;;
45522;SDS011;31254;51.680;5.394;2023-05-07T00:57:53;10.50;;;6.43;;
45522;SDS011;31254;51.680;5.394;2023-05-07T01:00:21;9.05;;;5.90;;
45522;SDS011;31254;51.680;5.394;2023-05-07T01:02:47;9.13;;;5.88;;
45522;SDS011;31254;51.680;5.394;2023-05-07T01:05:15;10.13;;;5.85;;
45522;SDS011;31254;51.680;5.394;2023-05-07T01:07:49;7.07;;;5.90;;
45522;SDS011;31254;51.680;5.394;2023-05-07T01:10:19;7.57;;;5.80;;
45522;SDS011;31254;51.680;5.394;2023-05-07T01:12:46;7.72;;;5.85;;
45522;SDS011;31254;51.680;5.394;2023-05-07T01:15:14;8.60;;;6.30;;
45522;SDS011;31254;51.680;5.394;2023-05-07T01:17:42;8.48;;;6.45;;
45522;SDS011;31254;51.680;5.394;2023-05-07T01:20:10;7.88;;;6.20;;
45522;SDS011;31254;51.680;5.394;2023-05-07T01:22:38;8.10;;;5.80;;
45522;SDS011;31254;51.680;5.394;2023-05-07T01:25:06;8.48;;;6.45;;
45522;SDS011;31254;51.680;5.394;2023-05-07T01:27:34;6.80;;;6.05;;
45522;SDS011;31254;51.680;5.394;2023-05-07T01:30:03;9.88;;;6.85;;
45522;SDS011;31254;51.680;5.394;2023-05-07T01:32:41;9.35;;;6.63;;
45522;SDS011;31254;51.680;5.394;2023-05-07T01:35:10;11.77;;;7.15;;
45522;SDS011;31254;51.680;5.394;2023-05-07T01:37:40;7.45;;;6.38;;
45522;SDS011;31254;51.680;5.394;2023-05-07T01:40:08;7.03;;;6.10;;
45522;SDS011;31254;51.680;5.394;2023-05-07T01:42:36;18.52;;;6.70;;
45522;SDS011;31254;51.680;5.394;2023-05-07T01:45:03;8.35;;;6.97;;
45522;SDS011;31254;51.680;5.394;2023-05-07T01:47:30;9.55;;;6.45;;
45522;SDS011;31254;51.680;5.394;2023-05-07T01:49:58;8.60;;;6.47;;
45522;SDS011;31254;51.680;5.394;2023-05-07T01:52:25;8.30;;;6.60;;
45522;SDS011;31254;51.680;5.394;2023-05-07T01:54:54;9.73;;;7.28;;
45522;SDS011;31254;51.680;5.394;2023-05-07T01:57:21;9.77;;;7.10;;
45522;SDS011;31254;51.680;5.394;2023-05-07T01:59:47;12.57;;;7.70;;
45522;SDS011;31254;51.680;5.394;2023-05-07T02:02:17;10.02;;;7.38;;
45522;SDS011;31254;51.680;5.394;2023-05-07T02:04:44;10.45;;;7.13;;
45522;SDS011;31254;51.680;5.394;2023-05-07T02:07:10;10.77;;;7.53;;
45522;SDS011;31254;51.680;5.394;2023-05-07T02:09:37;10.30;;;7.57;;
45522;SDS011;31254;51.680;5.394;2023-05-07T02:12:04;13.50;;;8.07;;
45522;SDS011;31254;51.680;5.394;2023-05-07T02:14:34;8.55;;;7.07;;
45522;SDS011;31254;51.680;5.394;2023-05-07T02:17:06;13.05;;;8.25;;
45522;SDS011;31254;51.680;5.394;2023-05-07T02:19:36;10.73;;;7.65;;
45522;SDS011;31254;51.680;5.394;2023-05-07T02:22:07;10.50;;;7.40;;
45522;SDS011;31254;51.680;5.394;2023-05-07T02:24:36;10.50;;;8.27;;
45522;SDS011;31254;51.680;5.394;2023-05-07T02:27:03;12.98;;;8.75;;
45522;SDS011;31254;51.680;5.394;2023-05-07T02:29:32;12.00;;;8.77;;
45522;SDS011;31254;51.680;5.394;2023-05-07T02:31:59;11.18;;;8.25;;
45522;SDS011;31254;51.680;5.394;2023-05-07T02:34:26;10.90;;;8.10;;
45522;SDS011;31254;51.680;5.394;2023-05-07T02:36:53;13.32;;;9.00;;
45522;SDS011;31254;51.680;5.394;2023-05-07T02:39:22;15.32;;;9.52;;
45522;SDS011;31254;51.680;5.394;2023-05-07T02:41:49;11.93;;;9.05;;
45522;SDS011;31254;51.680;5.394;2023-05-07T02:44:16;13.65;;;9.40;;
45522;SDS011;31254;51.680;5.394;2023-05-07T02:46:43;15.77;;;10.18;;
45522;SDS011;31254;51.680;5.394;2023-05-07T02:49:12;12.77;;;9.68;;
45522;SDS011;31254;51.680;5.394;2023-05-07T02:51:39;14.85;;;9.25;;
45522;SDS011;31254;51.680;5.394;2023-05-07T02:54:06;12.23;;;9.88;;
45522;SDS011;31254;51.680;5.394;2023-05-07T02:56:33;12.13;;;9.77;;
45522;SDS011;31254;51.680;5.394;2023-05-07T02:59:00;12.77;;;10.10;;
45522;SDS011;31254;51.680;5.394;2023-05-07T03:01:27;13.75;;;10.40;;
45522;SDS011;31254;51.680;5.394;2023-05-07T03:03:54;18.30;;;10.60;;
45522;SDS011;31254;51.680;5.394;2023-05-07T03:06:20;13.30;;;10.80;;
45522;SDS011;31254;51.680;5.394;2023-05-07T03:08:50;17.88;;;9.88;;
45522;SDS011;31254;51.680;5.394;2023-05-07T03:11:17;11.85;;;9.80;;
45522;SDS011;31254;51.680;5.394;2023-05-07T03:13:44;11.38;;;9.88;;
45522;SDS011;31254;51.680;5.394;2023-05-07T03:16:15;13.02;;;10.00;;
45522;SDS011;31254;51.680;5.394;2023-05-07T03:18:42;13.85;;;10.32;;
45522;SDS011;31254;51.680;5.394;2023-05-07T03:21:09;11.85;;;10.13;;
45522;SDS011;31254;51.680;5.394;2023-05-07T03:23:39;14.65;;;10.60;;
45522;SDS011;31254;51.680;5.394;2023-05-07T03:26:10;13.38;;;10.05;;
45522;SDS011;31254;51.680;5.394;2023-05-07T03:28:39;15.30;;;10.52;;
45522;SDS011;31254;51.680;5.394;2023-05-07T03:31:06;15.32;;;10.77;;
45522;SDS011;31254;51.680;5.394;2023-05-07T03:33:38;16.85;;;10.55;;
45522;SDS011;31254;51.680;5.394;2023-05-07T03:36:16;14.30;;;11.35;;
45522;SDS011;31254;51.680;5.394;2023-05-07T03:38:43;17.00;;;12.18;;
45522;SDS011;31254;51.680;5.394;2023-05-07T03:41:10;15.52;;;11.25;;
45522;SDS011;31254;51.680;5.394;2023-05-07T03:43:37;15.77;;;11.15;;
45522;SDS011;31254;51.680;5.394;2023-05-07T03:46:04;19.42;;;12.27;;
45522;SDS011;31254;51.680;5.394;2023-05-07T03:48:31;17.17;;;11.90;;
45522;SDS011;31254;51.680;5.394;2023-05-07T03:50:58;15.57;;;12.55;;
45522;SDS011;31254;51.680;5.394;2023-05-07T03:53:25;16.58;;;12.88;;
45522;SDS011;31254;51.680;5.394;2023-05-07T03:55:52;15.57;;;11.23;;
45522;SDS011;31254;51.680;5.394;2023-05-07T03:58:19;17.60;;;11.15;;
45522;SDS011;31254;51.680;5.394;2023-05-07T04:00:48;22.17;;;12.25;;
45522;SDS011;31254;51.680;5.394;2023-05-07T04:03:16;15.98;;;12.02;;
45522;SDS011;31254;51.680;5.394;2023-05-07T04:05:46;14.52;;;11.85;;
45522;SDS011;31254;51.680;5.394;2023-05-07T04:08:13;17.13;;;11.75;;
45522;SDS011;31254;51.680;5.394;2023-05-07T04:10:42;16.60;;;12.85;;
45522;SDS011;31254;51.680;5.394;2023-05-07T04:13:09;16.60;;;12.68;;
45522;SDS011;31254;51.680;5.394;2023-05-07T04:15:36;15.63;;;12.23;;
45522;SDS011;31254;51.680;5.394;2023-05-07T04:18:03;18.10;;;13.43;;
45522;SDS011;31254;51.680;5.394;2023-05-07T04:20:34;19.98;;;12.95;;
45522;SDS011;31254;51.680;5.394;2023-05-07T04:23:03;17.67;;;13.77;;
45522;SDS011;31254;51.680;5.394;2023-05-07T04:25:30;17.55;;;13.63;;
45522;SDS011;31254;51.680;5.394;2023-05-07T04:27:57;17.33;;;13.23;;
45522;SDS011;31254;51.680;5.394;2023-05-07T04:30:25;21.17;;;14.48;;
45522;SDS011;31254;51.680;5.394;2023-05-07T04:32:55;19.75;;;13.80;;
45522;SDS011;31254;51.680;5.394;2023-05-07T04:35:22;17.85;;;14.27;;
45522;SDS011;31254;51.680;5.394;2023-05-07T04:37:49;19.67;;;14.88;;
45522;SDS011;31254;51.680;5.394;2023-05-07T04:40:19;20.83;;;14.45;;
45522;SDS011;31254;51.680;5.394;2023-05-07T04:42:46;20.50;;;14.65;;
45522;SDS011;31254;51.680;5.394;2023-05-07T04:45:17;20.58;;;15.25;;
45522;SDS011;31254;51.680;5.394;2023-05-07T04:47:46;20.25;;;14.82;;
45522;SDS011;31254;51.680;5.394;2023-05-07T04:50:13;22.70;;;16.58;;
45522;SDS011;31254;51.680;5.394;2023-05-07T04:52:44;23.02;;;15.20;;
45522;SDS011;31254;51.680;5.394;2023-05-07T04:55:11;21.20;;;16.17;;
45522;SDS011;31254;51.680;5.394;2023-05-07T04:57:43;21.30;;;16.48;;
45522;SDS011;31254;51.680;5.394;2023-05-07T05:00:14;20.73;;;15.55;;
45522;SDS011;31254;51.680;5.394;2023-05-07T05:03:01;22.30;;;17.10;;
45522;SDS011;31254;51.680;5.394;2023-05-07T05:05:28;24.52;;;17.33;;
45522;SDS011;31254;51.680;5.394;2023-05-07T05:07:59;22.55;;;16.88;;
45522;SDS011;31254;51.680;5.394;2023-05-07T05:10:26;25.42;;;16.98;;
45522;SDS011;31254;51.680;5.394;2023-05-07T05:12:53;25.48;;;18.45;;
45522;SDS011;31254;51.680;5.394;2023-05-07T05:15:21;25.05;;;18.25;;
45522;SDS011;31254;51.680;5.394;2023-05-07T05:18:02;23.52;;;18.70;;
45522;SDS011;31254;51.680;5.394;2023-05-07T05:20:29;23.63;;;19.08;;
45522;SDS011;31254;51.680;5.394;2023-05-07T05:22:58;24.58;;;18.73;;
45522;SDS011;31254;51.680;5.394;2023-05-07T05:25:25;26.70;;;18.75;;
45522;SDS011;31254;51.680;5.394;2023-05-07T05:27:52;23.40;;;18.17;;
45522;SDS011;31254;51.680;5.394;2023-05-07T05:30:19;27.40;;;20.08;;
45522;SDS011;31254;51.680;5.394;2023-05-07T05:32:48;25.77;;;19.88;;
45522;SDS011;31254;51.680;5.394;2023-05-07T05:35:15;26.48;;;19.35;;
45522;SDS011;31254;51.680;5.394;2023-05-07T05:37:45;33.10;;;21.35;;
45522;SDS011;31254;51.680;5.394;2023-05-07T05:40:14;32.85;;;20.70;;
45522;SDS011;31254;51.680;5.394;2023-05-07T05:42:43;28.02;;;19.90;;
45522;SDS011;31254;51.680;5.394;2023-05-07T05:45:10;23.83;;;20.38;;
45522;SDS011;31254;51.680;5.394;2023-05-07T05:47:37;29.10;;;21.63;;
45522;SDS011;31254;51.680;5.394;2023-05-07T05:50:14;24.77;;;20.75;;
45522;SDS011;31254;51.680;5.394;2023-05-07T05:52:51;27.00;;;20.63;;
45522;SDS011;31254;51.680;5.394;2023-05-07T05:55:20;26.30;;;20.35;;
45522;SDS011;31254;51.680;5.394;2023-05-07T05:57:50;30.55;;;21.25;;
45522;SDS011;31254;51.680;5.394;2023-05-07T06:00:17;27.08;;;21.40;;
45522;SDS011;31254;51.680;5.394;2023-05-07T06:02:45;28.42;;;21.75;;
45522;SDS011;31254;51.680;5.394;2023-05-07T06:05:12;26.05;;;21.40;;
45522;SDS011;31254;51.680;5.394;2023-05-07T06:07:39;31.23;;;22.00;;
45522;SDS011;31254;51.680;5.394;2023-05-07T06:10:06;29.05;;;21.80;;
45522;SDS011;31254;51.680;5.394;2023-05-07T06:12:33;28.33;;;22.67;;
45522;SDS011;31254;51.680;5.394;2023-05-07T06:15:00;33.58;;;21.83;;
45522;SDS011;31254;51.680;5.394;2023-05-07T06:17:27;29.55;;;23.58;;
45522;SDS011;31254;51.680;5.394;2023-05-07T06:19:54;32.88;;;23.58;;
45522;SDS011;31254;51.680;5.394;2023-05-07T06:22:21;27.05;;;22.98;;
45522;SDS011;31254;51.680;5.394;2023-05-07T06:24:48;31.13;;;23.33;;
45522;SDS011;31254;51.680;5.394;2023-05-07T06:27:14;31.13;;;22.35;;
45522;SDS011;31254;51.680;5.394;2023-05-07T06:29:41;28.90;;;23.10;;
45522;SDS011;31254;51.680;5.394;2023-05-07T06:32:33;33.88;;;22.85;;
45522;SDS011;31254;51.680;5.394;2023-05-07T06:35:03;28.75;;;22.55;;
45522;SDS011;31254;51.680;5.394;2023-05-07T06:37:30;25.73;;;21.58;;
45522;SDS011;31254;51.680;5.394;2023-05-07T06:39:57;31.58;;;22.60;;
45522;SDS011;31254;51.680;5.394;2023-05-07T06:42:28;27.88;;;22.48;;
45522;SDS011;31254;51.680;5.394;2023-05-07T06:44:55;26.50;;;22.38;;
45522;SDS011;31254;51.680;5.394;2023-05-07T06:47:22;27.80;;;22.52;;
45522;SDS011;31254;51.680;5.394;2023-05-07T06:49:49;31.30;;;22.23;;
45522;SDS011;31254;51.680;5.394;2023-05-07T06:52:18;29.15;;;22.60;;
45522;SDS011;31254;51.680;5.394;2023-05-07T06:54:45;31.25;;;22.08;;
45522;SDS011;31254;51.680;5.394;2023-05-07T06:57:14;27.83;;;22.63;;
45522;SDS011;31254;51.680;5.394;2023-05-07T06:59:41;29.60;;;22.42;;
45522;SDS011;31254;51.680;5.394;2023-05-07T07:02:08;30.83;;;23.60;;
45522;SDS011;31254;51.680;5.394;2023-05-07T07:04:34;29.05;;;23.33;;
45522;SDS011;31254;51.680;5.394;2023-05-07T07:07:05;29.52;;;23.10;;
45522;SDS011;31254;51.680;5.394;2023-05-07T07:09:32;28.90;;;23.08;;
45522;SDS011;31254;51.680;5.394;2023-05-07T07:12:01;27.67;;;22.30;;
45522;SDS011;31254;51.680;5.394;2023-05-07T07:14:27;28.70;;;22.05;;
45522;SDS011;31254;51.680;5.394;2023-05-07T07:16:54;27.70;;;21.70;;
45522;SDS011;31254;51.680;5.394;2023-05-07T07:19:21;29.13;;;22.15;;
45522;SDS011;31254;51.680;5.394;2023-05-07T07:21:49;29.63;;;22.17;;
45522;SDS011;31254;51.680;5.394;2023-05-07T07:24:16;28.58;;;21.98;;
45522;SDS011;31254;51.680;5.394;2023-05-07T07:26:47;29.60;;;21.10;;
45522;SDS011;31254;51.680;5.394;2023-05-07T07:29:14;26.48;;;21.20;;
45522;SDS011;31254;51.680;5.394;2023-05-07T07:31:40;26.27;;;20.58;;
45522;SDS011;31254;51.680;5.394;2023-05-07T07:34:07;26.00;;;21.50;;
45522;SDS011;31254;51.680;5.394;2023-05-07T07:36:34;26.27;;;19.75;;
45522;SDS011;31254;51.680;5.394;2023-05-07T07:39:11;26.45;;;21.27;;
45522;SDS011;31254;51.680;5.394;2023-05-07T07:41:41;25.85;;;20.67;;
45522;SDS011;31254;51.680;5.394;2023-05-07T07:44:11;25.02;;;19.30;;
45522;SDS011;31254;51.680;5.394;2023-05-07T07:46:41;26.02;;;19.38;;
45522;SDS011;31254;51.680;5.394;2023-05-07T07:49:08;27.95;;;20.42;;
45522;SDS011;31254;51.680;5.394;2023-05-07T07:51:35;27.10;;;19.80;;
45522;SDS011;31254;51.680;5.394;2023-05-07T07:54:03;23.10;;;18.98;;
45522;SDS011;31254;51.680;5.394;2023-05-07T07:56:31;24.60;;;17.40;;
45522;SDS011;31254;51.680;5.394;2023-05-07T07:59:00;33.45;;;21.35;;
45522;SDS011;31254;51.680;5.394;2023-05-07T08:01:29;26.73;;;19.13;;
45522;SDS011;31254;51.680;5.394;2023-05-07T08:03:56;24.55;;;18.02;;
45522;SDS011;31254;51.680;5.394;2023-05-07T08:06:25;21.70;;;18.40;;
45522;SDS011;31254;51.680;5.394;2023-05-07T08:08:54;24.90;;;18.88;;
45522;SDS011;31254;51.680;5.394;2023-05-07T08:11:21;22.48;;;17.23;;
45522;SDS011;31254;51.680;5.394;2023-05-07T08:13:48;24.38;;;17.63;;
45522;SDS011;31254;51.680;5.394;2023-05-07T08:16:15;23.58;;;16.77;;
45522;SDS011;31254;51.680;5.394;2023-05-07T08:18:41;21.75;;;17.55;;
45522;SDS011;31254;51.680;5.394;2023-05-07T08:21:11;24.52;;;17.17;;
45522;SDS011;31254;51.680;5.394;2023-05-07T08:23:37;21.88;;;16.58;;
45522;SDS011;31254;51.680;5.394;2023-05-07T08:26:08;18.98;;;16.13;;
45522;SDS011;31254;51.680;5.394;2023-05-07T08:28:35;18.70;;;15.68;;
45522;SDS011;31254;51.680;5.394;2023-05-07T08:31:02;19.23;;;15.18;;
45522;SDS011;31254;51.680;5.394;2023-05-07T08:33:28;20.73;;;15.45;;
45522;SDS011;31254;51.680;5.394;2023-05-07T08:35:57;17.55;;;15.38;;
45522;SDS011;31254;51.680;5.394;2023-05-07T08:38:24;19.38;;;15.07;;
45522;SDS011;31254;51.680;5.394;2023-05-07T08:40:56;18.52;;;14.32;;
45522;SDS011;31254;51.680;5.394;2023-05-07T08:43:23;19.35;;;13.35;;
45522;SDS011;31254;51.680;5.394;2023-05-07T08:45:55;14.95;;;13.27;;
45522;SDS011;31254;51.680;5.394;2023-05-07T08:48:27;18.17;;;13.10;;
45522;SDS011;31254;51.680;5.394;2023-05-07T08:50:57;15.18;;;12.73;;
45522;SDS011;31254;51.680;5.394;2023-05-07T08:53:25;18.27;;;13.30;;
45522;SDS011;31254;51.680;5.394;2023-05-07T08:55:52;17.23;;;12.57;;
45522;SDS011;31254;51.680;5.394;2023-05-07T08:58:19;16.70;;;12.82;;
45522;SDS011;31254;51.680;5.394;2023-05-07T09:00:46;16.15;;;13.07;;
45522;SDS011;31254;51.680;5.394;2023-05-07T09:03:13;15.63;;;13.35;;
45522;SDS011;31254;51.680;5.394;2023-05-07T09:05:40;14.82;;;12.57;;
45522;SDS011;31254;51.680;5.394;2023-05-07T09:08:07;16.38;;;13.48;;
45522;SDS011;31254;51.680;5.394;2023-05-07T09:10:34;15.77;;;12.90;;
45522;SDS011;31254;51.680;5.394;2023-05-07T09:13:02;18.67;;;13.68;;
45522;SDS011;31254;51.680;5.394;2023-05-07T09:15:30;15.80;;;13.00;;
45522;SDS011;31254;51.680;5.394;2023-05-07T09:18:00;15.55;;;11.93;;
45522;SDS011;31254;51.680;5.394;2023-05-07T09:20:30;15.93;;;11.80;;
45522;SDS011;31254;51.680;5.394;2023-05-07T09:22:58;14.88;;;11.30;;
45522;SDS011;31254;51.680;5.394;2023-05-07T09:25:28;15.10;;;12.23;;
45522;SDS011;31254;51.680;5.394;2023-05-07T09:27:57;16.83;;;12.45;;
45522;SDS011;31254;51.680;5.394;2023-05-07T09:30:28;14.55;;;12.23;;
45522;SDS011;31254;51.680;5.394;2023-05-07T09:32:57;17.20;;;13.27;;
45522;SDS011;31254;51.680;5.394;2023-05-07T09:35:26;15.70;;;12.00;;
45522;SDS011;31254;51.680;5.394;2023-05-07T09:37:54;15.02;;;13.25;;
45522;SDS011;31254;51.680;5.394;2023-05-07T09:40:27;14.93;;;12.80;;
45522;SDS011;31254;51.680;5.394;2023-05-07T09:42:55;17.77;;;12.73;;
45522;SDS011;31254;51.680;5.394;2023-05-07T09:47:55;15.60;;;12.95;;
45522;SDS011;31254;51.680;5.394;2023-05-07T09:50:29;15.48;;;13.05;;
45522;SDS011;31254;51.680;5.394;2023-05-07T09:52:58;18.33;;;12.48;;
45522;SDS011;31254;51.680;5.394;2023-05-07T09:55:26;18.50;;;12.50;;
45522;SDS011;31254;51.680;5.394;2023-05-07T09:57:53;14.35;;;11.07;;
45522;SDS011;31254;51.680;5.394;2023-05-07T10:00:35;15.57;;;12.45;;
45522;SDS011;31254;51.680;5.394;2023-05-07T10:03:03;14.70;;;11.85;;
45522;SDS011;31254;51.680;5.394;2023-05-07T10:05:42;18.38;;;12.32;;
45522;SDS011;31254;51.680;5.394;2023-05-07T10:08:10;13.00;;;11.63;;
45522;SDS011;31254;51.680;5.394;2023-05-07T10:10:43;14.68;;;11.25;;
45522;SDS011;31254;51.680;5.394;2023-05-07T10:13:21;16.13;;;11.45;;
45522;SDS011;31254;51.680;5.394;2023-05-07T10:15:48;14.60;;;11.32;;
45522;SDS011;31254;51.680;5.394;2023-05-07T10:18:20;21.63;;;11.10;;
45522;SDS011;31254;51.680;5.394;2023-05-07T10:20:55;13.50;;;11.52;;
45522;SDS011;31254;51.680;5.394;2023-05-07T10:23:32;15.23;;;10.95;;
45522;SDS011;31254;51.680;5.394;2023-05-07T10:26:08;13.43;;;10.73;;
45522;SDS011;31254;51.680;5.394;2023-05-07T10:28:39;16.23;;;10.88;;
45522;SDS011;31254;51.680;5.394;2023-05-07T10:34:26;12.85;;;10.70;;
45522;SDS011;31254;51.680;5.394;2023-05-07T10:36:58;14.02;;;11.07;;
45522;SDS011;31254;51.680;5.394;2023-05-07T10:39:26;14.52;;;11.93;;
45522;SDS011;31254;51.680;5.394;2023-05-07T10:41:53;15.80;;;12.35;;
45522;SDS011;31254;51.680;5.394;2023-05-07T10:44:27;13.50;;;11.38;;
45522;SDS011;31254;51.680;5.394;2023-05-07T10:47:03;16.05;;;12.25;;
45522;SDS011;31254;51.680;5.394;2023-05-07T10:49:36;15.57;;;12.57;;
45522;SDS011;31254;51.680;5.394;2023-05-07T10:52:19;14.60;;;12.02;;
45522;SDS011;31254;51.680;5.394;2023-05-07T10:55:35;14.55;;;12.65;;
45522;SDS011;31254;51.680;5.394;2023-05-07T10:57:51;13.82;;;11.88;;
45522;SDS011;31254;51.680;5.394;2023-05-07T11:03:04;13.65;;;11.57;;
45522;SDS011;31254;51.680;5.394;2023-05-07T11:05:33;14.50;;;12.52;;
45522;SDS011;31254;51.680;5.394;2023-05-07T11:08:05;14.60;;;12.73;;
45522;SDS011;31254;51.680;5.394;2023-05-07T11:16:22;15.68;;;10.98;;
45522;SDS011;31254;51.680;5.394;2023-05-07T11:18:52;17.58;;;10.95;;
45522;SDS011;31254;51.680;5.394;2023-05-07T11:24:03;14.55;;;11.00;;
45522;SDS011;31254;51.680;5.394;2023-05-07T11:26:45;13.02;;;10.70;;
45522;SDS011;31254;51.680;5.394;2023-05-07T11:29:15;13.93;;;10.43;;
45522;SDS011;31254;51.680;5.394;2023-05-07T11:31:52;15.23;;;10.75;;
45522;SDS011;31254;51.680;5.394;2023-05-07T11:34:26;14.82;;;10.70;;
45522;SDS011;31254;51.680;5.394;2023-05-07T11:36:54;12.68;;;11.32;;
45522;SDS011;31254;51.680;5.394;2023-05-07T11:39:25;14.63;;;10.98;;
45522;SDS011;31254;51.680;5.394;2023-05-07T11:41:53;15.00;;;10.73;;
45522;SDS011;31254;51.680;5.394;2023-05-07T11:44:20;12.40;;;10.40;;
45522;SDS011;31254;51.680;5.394;2023-05-07T11:46:47;17.73;;;10.88;;
45522;SDS011;31254;51.680;5.394;2023-05-07T11:49:14;13.82;;;10.55;;
45522;SDS011;31254;51.680;5.394;2023-05-07T11:51:42;14.80;;;10.18;;
45522;SDS011;31254;51.680;5.394;2023-05-07T11:54:09;16.75;;;10.18;;
45522;SDS011;31254;51.680;5.394;2023-05-07T11:56:37;12.98;;;9.60;;
45522;SDS011;31254;51.680;5.394;2023-05-07T11:59:05;10.27;;;9.20;;
45522;SDS011;31254;51.680;5.394;2023-05-07T12:01:34;13.25;;;9.27;;
45522;SDS011;31254;51.680;5.394;2023-05-07T12:04:03;12.50;;;9.43;;
45522;SDS011;31254;51.680;5.394;2023-05-07T12:06:35;13.68;;;9.05;;
45522;SDS011;31254;51.680;5.394;2023-05-07T12:09:05;12.15;;;8.70;;
45522;SDS011;31254;51.680;5.394;2023-05-07T12:11:37;13.38;;;9.02;;
45522;SDS011;31254;51.680;5.394;2023-05-07T12:14:06;11.00;;;8.38;;
45522;SDS011;31254;51.680;5.394;2023-05-07T12:16:36;9.90;;;8.30;;
45522;SDS011;31254;51.680;5.394;2023-05-07T12:19:03;10.23;;;8.30;;
45522;SDS011;31254;51.680;5.394;2023-05-07T12:21:35;12.35;;;8.70;;
45522;SDS011;31254;51.680;5.394;2023-05-07T12:24:02;12.23;;;8.70;;
45522;SDS011;31254;51.680;5.394;2023-05-07T12:26:29;13.38;;;9.00;;
45522;SDS011;31254;51.680;5.394;2023-05-07T12:29:02;12.73;;;8.10;;
45522;SDS011;31254;51.680;5.394;2023-05-07T12:31:29;8.93;;;7.95;;
45522;SDS011;31254;51.680;5.394;2023-05-07T12:34:00;10.02;;;7.50;;
45522;SDS011;31254;51.680;5.394;2023-05-07T12:36:39;12.27;;;8.27;;
45522;SDS011;31254;51.680;5.394;2023-05-07T12:39:08;9.73;;;8.23;;
45522;SDS011;31254;51.680;5.394;2023-05-07T12:41:54;12.73;;;8.05;;
45522;SDS011;31254;51.680;5.394;2023-05-07T12:44:23;10.43;;;7.43;;
45522;SDS011;31254;51.680;5.394;2023-05-07T12:47:06;12.82;;;7.22;;
45522;SDS011;31254;51.680;5.394;2023-05-07T12:49:34;10.50;;;7.45;;
45522;SDS011;31254;51.680;5.394;2023-05-07T12:52:04;10.65;;;7.35;;
45522;SDS011;31254;51.680;5.394;2023-05-07T12:54:32;12.80;;;8.00;;
45522;SDS011;31254;51.680;5.394;2023-05-07T12:57:04;9.82;;;7.47;;
45522;SDS011;31254;51.680;5.394;2023-05-07T12:59:37;11.05;;;6.85;;
45522;SDS011;31254;51.680;5.394;2023-05-07T13:02:12;10.65;;;6.85;;
45522;SDS011;31254;51.680;5.394;2023-05-07T13:04:39;10.10;;;7.75;;
45522;SDS011;31254;51.680;5.394;2023-05-07T13:07:05;9.77;;;7.18;;
45522;SDS011;31254;51.680;5.394;2023-05-07T13:09:32;9.32;;;6.70;;
45522;SDS011;31254;51.680;5.394;2023-05-07T13:11:59;9.23;;;6.45;;
45522;SDS011;31254;51.680;5.394;2023-05-07T13:14:29;9.38;;;6.30;;
45522;SDS011;31254;51.680;5.394;2023-05-07T13:16:58;12.63;;;6.15;;
45522;SDS011;31254;51.680;5.394;2023-05-07T13:19:25;10.35;;;6.03;;
45522;SDS011;31254;51.680;5.394;2023-05-07T13:21:54;9.70;;;6.07;;
45522;SDS011;31254;51.680;5.394;2023-05-07T13:24:23;9.23;;;5.35;;
45522;SDS011;31254;51.680;5.394;2023-05-07T13:26:50;9.65;;;6.30;;
45522;SDS011;31254;51.680;5.394;2023-05-07T13:29:17;12.57;;;5.97;;
45522;SDS011;31254;51.680;5.394;2023-05-07T13:31:43;9.02;;;5.45;;
45522;SDS011;31254;51.680;5.394;2023-05-07T13:34:11;9.15;;;6.00;;
45522;SDS011;31254;51.680;5.394;2023-05-07T13:36:37;10.02;;;6.57;;
45522;SDS011;31254;51.680;5.394;2023-05-07T13:39:08;10.45;;;7.75;;
45522;SDS011;31254;51.680;5.394;2023-05-07T13:41:35;9.60;;;7.15;;
45522;SDS011;31254;51.680;5.394;2023-05-07T13:44:02;11.73;;;7.75;;
45522;SDS011;31254;51.680;5.394;2023-05-07T13:46:30;9.20;;;6.75;;
45522;SDS011;31254;51.680;5.394;2023-05-07T13:48:57;10.75;;;7.40;;
45522;SDS011;31254;51.680;5.394;2023-05-07T13:51:23;13.68;;;9.90;;
45522;SDS011;31254;51.680;5.394;2023-05-07T13:53:50;13.07;;;8.80;;
45522;SDS011;31254;51.680;5.394;2023-05-07T13:56:18;12.87;;;10.63;;
45522;SDS011;31254;51.680;5.394;2023-05-07T13:58:46;11.23;;;8.00;;
45522;SDS011;31254;51.680;5.394;2023-05-07T14:01:25;9.48;;;6.68;;
45522;SDS011;31254;51.680;5.394;2023-05-07T14:03:56;10.82;;;8.07;;
45522;SDS011;31254;51.680;5.394;2023-05-07T14:06:29;10.65;;;6.93;;
45522;SDS011;31254;51.680;5.394;2023-05-07T14:08:56;10.40;;;6.47;;
45522;SDS011;31254;51.680;5.394;2023-05-07T14:11:24;20.40;;;8.85;;
45522;SDS011;31254;51.680;5.394;2023-05-07T14:13:51;12.75;;;6.45;;
45522;SDS011;31254;51.680;5.394;2023-05-07T14:16:20;10.65;;;3.80;;
45522;SDS011;31254;51.680;5.394;2023-05-07T14:18:46;6.00;;;3.38;;
45522;SDS011;31254;51.680;5.394;2023-05-07T14:21:14;6.15;;;3.10;;
45522;SDS011;31254;51.680;5.394;2023-05-07T14:23:44;9.00;;;3.63;;
45522;SDS011;31254;51.680;5.394;2023-05-07T14:26:11;5.90;;;3.03;;
45522;SDS011;31254;51.680;5.394;2023-05-07T14:28:37;9.90;;;3.20;;
45522;SDS011;31254;51.680;5.394;2023-05-07T14:31:09;7.18;;;2.80;;
45522;SDS011;31254;51.680;5.394;2023-05-07T14:33:37;7.53;;;2.50;;
45522;SDS011;31254;51.680;5.394;2023-05-07T14:36:07;4.38;;;2.20;;
45522;SDS011;31254;51.680;5.394;2023-05-07T14:38:33;8.10;;;3.70;;
45522;SDS011;31254;51.680;5.394;2023-05-07T14:41:00;5.88;;;3.03;;
45522;SDS011;31254;51.680;5.394;2023-05-07T14:43:27;4.93;;;2.00;;
45522;SDS011;31254;51.680;5.394;2023-05-07T14:45:54;5.20;;;1.85;;
45522;SDS011;31254;51.680;5.394;2023-05-07T14:48:28;5.65;;;1.77;;
45522;SDS011;31254;51.680;5.394;2023-05-07T14:54:00;2.95;;;1.60;;
45522;SDS011;31254;51.680;5.394;2023-05-07T14:56:28;4.00;;;1.80;;
45522;SDS011;31254;51.680;5.394;2023-05-07T14:58:55;2.75;;;1.70;;